createdAt,value
2019-02-20T00:02:25.989Z,14.13
2019-02-20T00:04:52.166Z,16.57
2019-02-20T00:07:18.318Z,19.20
2019-02-20T00:09:44.744Z,14.20
2019-02-20T00:12:10.912Z,18.67
2019-02-20T00:14:37.043Z,13.83
2019-02-20T00:17:03.212Z,17.33
2019-02-20T00:19:29.358Z,14.67
2019-02-20T00:21:55.776Z,15.27
2019-02-20T00:24:21.925Z,15.60
2019-02-20T00:26:48.099Z,12.80
2019-02-20T00:29:14.251Z,12.50
2019-02-20T00:31:40.405Z,13.37
2019-02-20T00:34:08.199Z,14.77
2019-02-20T00:36:34.775Z,17.93
2019-02-20T00:39:00.923Z,16.77
2019-02-20T00:41:27.077Z,20.37
2019-02-20T00:43:55.138Z,15.83
2019-02-20T00:46:23.181Z,18.97
2019-02-20T00:48:57.256Z,17.03
2019-02-20T00:51:31.315Z,15.30
2019-02-20T00:54:02.178Z,19.27
2019-02-20T00:56:28.343Z,16.40
2019-02-20T00:58:54.487Z,19.20
2019-02-20T01:01:20.642Z,17.70
2019-02-20T01:03:46.898Z,15.67
2019-02-20T01:06:13.062Z,13.30
2019-02-20T01:08:39.230Z,11.13
2019-02-20T01:11:05.384Z,13.77
2019-02-20T01:13:31.548Z,14.67
2019-02-20T01:15:57.691Z,11.97
2019-02-20T01:18:23.848Z,16.60
2019-02-20T01:20:49.995Z,12.97
2019-02-20T01:23:17.152Z,15.23
2019-02-20T01:25:43.311Z,16.47
2019-02-20T01:28:09.450Z,12.87
2019-02-20T01:30:35.609Z,13.87
2019-02-20T01:33:01.747Z,15.63
2019-02-20T01:35:27.927Z,14.37
2019-02-20T01:37:54.076Z,15.00
2019-02-20T01:40:20.339Z,19.70
2019-02-20T01:42:46.491Z,20.27
2019-02-20T01:45:12.695Z,17.23
2019-02-20T01:47:38.833Z,21.57
2019-02-20T01:50:06.009Z,14.70
2019-02-20T01:52:32.438Z,16.67
2019-02-20T01:54:58.598Z,16.50
2019-02-20T01:57:24.735Z,17.53
2019-02-20T01:59:50.895Z,18.10
2019-02-20T02:02:17.039Z,17.80
2019-02-20T02:04:43.202Z,16.87
2019-02-20T02:07:09.345Z,15.97
2019-02-20T02:09:35.483Z,19.00
2019-02-20T02:12:01.896Z,17.33
2019-02-20T02:14:28.451Z,17.17
2019-02-20T02:16:54.605Z,18.30
2019-02-20T02:19:23.659Z,14.53
2019-02-20T02:21:49.819Z,20.20
2019-02-20T02:24:15.963Z,18.03
2019-02-20T02:26:42.111Z,14.60
2019-02-20T02:29:08.491Z,19.53
2019-02-20T02:31:34.658Z,17.93
2019-02-20T02:34:00.899Z,16.37
2019-02-20T02:36:27.313Z,19.17
2019-02-20T02:38:53.467Z,19.87
2019-02-20T02:41:19.928Z,16.80
2019-02-20T02:43:46.188Z,19.30
2019-02-20T02:46:12.336Z,17.60
2019-02-20T02:48:38.495Z,16.17
2019-02-20T02:51:04.644Z,18.23
2019-02-20T02:53:31.165Z,19.70
2019-02-20T02:55:57.448Z,18.30
2019-02-20T02:58:23.605Z,19.10
2019-02-20T03:00:49.851Z,17.70
2019-02-20T03:03:16.243Z,16.27
2019-02-20T03:05:42.637Z,20.33
2019-02-20T03:08:08.889Z,17.27
2019-02-20T03:10:35.034Z,17.03
2019-02-20T03:13:01.290Z,17.10
2019-02-20T03:15:27.435Z,17.80
2019-02-20T03:17:53.600Z,20.33
2019-02-20T03:20:19.744Z,21.07
2019-02-20T03:22:45.893Z,18.30
2019-02-20T03:25:12.048Z,20.83
2019-02-20T03:27:38.196Z,20.33
2019-02-20T03:30:05.756Z,18.70
2019-02-20T03:32:32.227Z,17.13
2019-02-20T03:34:58.363Z,17.77
2019-02-20T03:37:24.529Z,16.03
2019-02-20T03:39:51.772Z,16.93
2019-02-20T03:42:17.935Z,17.83
2019-02-20T03:44:44.081Z,23.57
2019-02-20T03:47:10.219Z,14.47
2019-02-20T03:49:36.367Z,23.97
2019-02-20T03:52:02.504Z,16.37
2019-02-20T03:54:28.989Z,19.53
2019-02-20T03:56:55.132Z,19.27
2019-02-20T03:59:21.526Z,21.60
2019-02-20T04:01:47.679Z,17.77
2019-02-20T04:04:13.843Z,23.10
2019-02-20T04:06:39.995Z,17.70
2019-02-20T04:09:06.166Z,17.90
2019-02-20T04:11:32.610Z,19.13
2019-02-20T04:13:58.763Z,19.90
2019-02-20T04:16:24.980Z,21.37
2019-02-20T04:18:51.266Z,20.87
2019-02-20T04:21:17.707Z,20.23
2019-02-20T04:23:43.862Z,17.60
2019-02-20T04:26:10.056Z,20.53
2019-02-20T04:28:36.271Z,20.43
2019-02-20T04:31:02.420Z,19.70
2019-02-20T04:33:28.578Z,22.77
2019-02-20T04:35:54.973Z,19.43
2019-02-20T04:38:21.128Z,17.87
2019-02-20T04:40:47.472Z,20.93
2019-02-20T04:43:13.636Z,17.60
2019-02-20T04:45:39.785Z,15.47
2019-02-20T04:48:05.940Z,20.17
2019-02-20T04:50:32.091Z,20.83
2019-02-20T04:52:58.574Z,22.57
2019-02-20T04:55:24.727Z,22.60
2019-02-20T04:58:09.838Z,18.20
2019-02-20T05:00:35.999Z,15.90
2019-02-20T05:03:02.169Z,17.83
2019-02-20T05:05:28.312Z,20.37
2019-02-20T05:07:54.565Z,17.07
2019-02-20T05:10:20.710Z,21.47
2019-02-20T05:12:46.865Z,20.10
2019-02-20T05:15:13.022Z,19.93
2019-02-20T05:17:39.255Z,21.30
2019-02-20T05:20:07.320Z,24.37
2019-02-20T05:22:33.484Z,21.07
2019-02-20T05:24:59.647Z,16.87
2019-02-20T05:27:26.053Z,19.37
2019-02-20T05:29:52.210Z,24.23
2019-02-20T05:32:18.351Z,17.07
2019-02-20T05:34:44.843Z,18.27
2019-02-20T05:37:11.230Z,23.07
2019-02-20T05:39:37.401Z,19.70
2019-02-20T05:42:03.553Z,18.10
2019-02-20T05:44:29.695Z,22.57
2019-02-20T05:46:55.834Z,18.13
2019-02-20T05:49:21.996Z,18.57
2019-02-20T05:51:48.136Z,17.00
2019-02-20T05:54:14.302Z,17.30
2019-02-20T05:56:40.448Z,19.90
2019-02-20T05:59:06.620Z,18.80
2019-02-20T06:01:32.775Z,17.07
2019-02-20T06:03:58.924Z,18.37
2019-02-20T06:06:25.079Z,22.50
2019-02-20T06:08:51.229Z,21.67
2019-02-20T06:11:17.454Z,18.57
2019-02-20T06:13:43.611Z,16.57
2019-02-20T06:16:09.807Z,18.83
2019-02-20T06:18:36.005Z,18.90
2019-02-20T06:21:02.153Z,23.10
2019-02-20T06:23:28.315Z,17.67
2019-02-20T06:25:54.458Z,21.50
2019-02-20T06:28:20.642Z,22.63
2019-02-20T06:30:46.795Z,18.40
2019-02-20T06:33:12.951Z,22.53
2019-02-20T06:35:39.107Z,17.97
2019-02-20T06:38:06.357Z,20.27
2019-02-20T06:40:32.523Z,20.43
2019-02-20T06:42:58.667Z,21.93
2019-02-20T06:45:25.511Z,20.80
2019-02-20T06:47:52.000Z,21.07
2019-02-20T06:50:18.243Z,19.23
2019-02-20T06:52:44.484Z,26.27
2019-02-20T06:55:11.041Z,20.97
2019-02-20T06:57:37.193Z,20.47
2019-02-20T07:00:05.958Z,22.10
2019-02-20T07:02:32.642Z,26.13
2019-02-20T07:05:31.411Z,21.33
2019-02-20T07:08:34.744Z,19.87
2019-02-20T07:11:26.230Z,27.67
2019-02-20T07:14:07.553Z,24.03
2019-02-20T07:16:49.345Z,19.90
2019-02-20T07:19:31.152Z,20.70
2019-02-20T07:22:01.109Z,20.70
2019-02-20T07:24:45.914Z,25.30
2019-02-20T07:27:19.003Z,23.57
2019-02-20T07:29:58.953Z,26.10
2019-02-20T07:32:25.120Z,24.80
2019-02-20T07:34:51.262Z,22.50
2019-02-20T07:37:17.417Z,25.87
2019-02-20T07:39:43.599Z,27.33
2019-02-20T07:42:09.755Z,25.13
2019-02-20T07:44:35.907Z,28.63
2019-02-20T07:47:02.050Z,27.17
2019-02-20T07:49:29.191Z,27.47
2019-02-20T07:51:55.584Z,30.13
2019-02-20T07:54:21.976Z,24.30
2019-02-20T07:56:48.111Z,27.63
2019-02-20T07:59:14.266Z,26.00
2019-02-20T08:01:40.400Z,25.87
2019-02-20T08:04:06.793Z,25.40
2019-02-20T08:06:32.932Z,23.57
2019-02-20T08:08:59.067Z,29.80
2019-02-20T08:11:25.246Z,24.80
2019-02-20T08:13:51.390Z,26.63
2019-02-20T08:16:17.539Z,26.37
2019-02-20T08:18:43.723Z,26.53
2019-02-20T08:21:09.962Z,27.20
2019-02-20T08:23:36.117Z,21.27
2019-02-20T08:26:02.617Z,24.87
2019-02-20T08:28:28.775Z,25.13
2019-02-20T08:30:54.923Z,25.23
2019-02-20T08:33:21.084Z,26.47
2019-02-20T08:35:47.540Z,27.80
2019-02-20T08:38:13.713Z,27.07
2019-02-20T08:40:39.878Z,23.67
2019-02-20T08:43:06.318Z,27.23
2019-02-20T08:45:32.479Z,26.17
2019-02-20T08:47:58.626Z,25.83
2019-02-20T08:50:24.783Z,25.70
2019-02-20T08:52:50.933Z,31.73
2019-02-20T08:55:18.844Z,27.73
2019-02-20T08:57:45.140Z,30.37
2019-02-20T09:00:13.425Z,28.80
2019-02-20T09:02:39.946Z,32.40
2019-02-20T09:05:08.344Z,28.07
2019-02-20T09:07:34.500Z,28.37
2019-02-20T09:10:00.658Z,30.73
2019-02-20T09:12:26.800Z,29.93
2019-02-20T09:14:52.949Z,29.70
2019-02-20T09:17:19.103Z,26.50
2019-02-20T09:19:45.264Z,29.37
2019-02-20T09:22:11.407Z,35.57
2019-02-20T09:24:37.550Z,30.23
2019-02-20T09:27:03.943Z,30.70
2019-02-20T09:29:30.099Z,28.27
2019-02-20T09:31:56.239Z,31.20
2019-02-20T09:34:22.399Z,26.13
2019-02-20T09:36:48.550Z,28.93
2019-02-20T09:39:29.314Z,31.07
2019-02-20T09:41:55.515Z,26.23
2019-02-20T09:44:21.666Z,26.43
2019-02-20T09:46:47.840Z,28.30
2019-02-20T09:49:14.002Z,29.57
2019-02-20T09:51:40.134Z,31.30
2019-02-20T09:54:06.541Z,29.63
2019-02-20T09:56:32.683Z,29.30
2019-02-20T09:58:58.845Z,27.27
2019-02-20T10:01:25.024Z,27.40
2019-02-20T10:03:51.175Z,29.90
2019-02-20T10:06:17.356Z,29.53
2019-02-20T10:08:43.501Z,31.27
2019-02-20T10:11:09.904Z,26.23
2019-02-20T10:13:36.051Z,29.47
2019-02-20T10:16:02.435Z,28.43
2019-02-20T10:18:28.594Z,28.33
2019-02-20T10:20:54.967Z,30.33
2019-02-20T10:23:21.133Z,29.60
2019-02-20T10:25:47.403Z,27.90
2019-02-20T10:28:13.551Z,29.87
2019-02-20T10:30:39.727Z,28.97
2019-02-20T10:33:05.861Z,28.07
2019-02-20T10:35:32.014Z,32.57
2019-02-20T10:37:58.195Z,29.00
2019-02-20T10:40:24.386Z,26.47
2019-02-20T10:42:50.562Z,30.93
2019-02-20T10:45:16.945Z,26.60
2019-02-20T10:47:43.351Z,33.30
2019-02-20T10:50:11.805Z,32.83
2019-02-20T10:52:38.055Z,29.67
2019-02-20T10:55:06.097Z,32.27
2019-02-20T10:57:32.260Z,26.97
2019-02-20T10:59:58.655Z,32.43
2019-02-20T11:02:24.815Z,27.97
2019-02-20T11:04:50.974Z,28.13
2019-02-20T11:07:17.126Z,30.43
2019-02-20T11:09:43.287Z,24.57
2019-02-20T11:12:10.443Z,27.40
2019-02-20T11:14:37.839Z,24.27
2019-02-20T11:17:05.186Z,22.40
2019-02-20T11:19:31.333Z,22.53
2019-02-20T11:21:57.726Z,23.43
2019-02-20T11:24:23.870Z,22.77
2019-02-20T11:26:54.740Z,23.17
2019-02-20T11:29:18.090Z,21.77
2019-02-20T11:31:44.358Z,22.40
2019-02-20T11:34:11.307Z,23.87
2019-02-20T11:36:37.564Z,19.60
2019-02-20T11:39:04.512Z,22.27
2019-02-20T11:41:32.628Z,20.60
2019-02-20T11:43:58.778Z,19.27
2019-02-20T11:46:24.923Z,19.47
2019-02-20T11:48:51.084Z,22.87
2019-02-20T11:51:17.235Z,23.53
2019-02-20T11:53:43.382Z,19.50
2019-02-20T11:56:09.525Z,24.07
2019-02-20T11:58:35.814Z,18.80
2019-02-20T12:01:02.772Z,23.10
2019-02-20T12:03:29.934Z,20.73
2019-02-20T12:05:56.207Z,22.33
2019-02-20T12:08:23.482Z,17.10
2019-02-20T12:10:49.643Z,17.40
2019-02-20T12:13:15.904Z,16.33
2019-02-20T12:15:42.037Z,18.30
2019-02-20T12:18:08.257Z,18.83
2019-02-20T12:20:34.398Z,15.93
2019-02-20T12:23:00.550Z,16.10
2019-02-20T12:25:26.936Z,14.17
2019-02-20T12:27:53.331Z,19.73
2019-02-20T12:30:19.722Z,14.53
2019-02-20T12:32:45.873Z,14.13
2019-02-20T12:35:12.135Z,17.07
2019-02-20T12:37:38.310Z,18.43
2019-02-20T12:40:10.208Z,19.17
2019-02-20T12:42:36.359Z,16.00
2019-02-20T12:45:03.814Z,14.07
2019-02-20T12:47:30.063Z,15.83
2019-02-20T12:49:56.224Z,17.50
2019-02-20T12:52:22.375Z,14.33
2019-02-20T12:54:48.540Z,15.60
2019-02-20T12:57:14.692Z,15.90
2019-02-20T12:59:40.958Z,16.80
2019-02-20T13:02:07.198Z,18.77
2019-02-20T13:04:33.348Z,16.10
2019-02-20T13:06:59.774Z,16.97
2019-02-20T13:09:25.955Z,14.90
2019-02-20T13:11:52.117Z,14.60
2019-02-20T13:14:18.271Z,15.33
2019-02-20T13:16:44.456Z,13.50
2019-02-20T13:19:10.712Z,14.83
2019-02-20T13:21:36.935Z,14.53
2019-02-20T13:24:03.128Z,13.67
2019-02-20T13:26:29.714Z,12.23
2019-02-20T13:28:56.784Z,15.80
2019-02-20T13:31:23.023Z,15.67
2019-02-20T13:33:49.260Z,15.03
2019-02-20T13:36:16.395Z,12.50
2019-02-20T13:38:42.555Z,14.97
2019-02-20T13:41:09.241Z,14.67
2019-02-20T13:43:35.455Z,11.73
2019-02-20T13:46:01.599Z,12.43
2019-02-20T13:48:27.766Z,12.33
2019-02-20T13:50:54.149Z,12.67
2019-02-20T13:53:20.281Z,16.23
2019-02-20T13:55:46.436Z,12.97
2019-02-20T13:58:12.584Z,12.43
2019-02-20T14:00:38.729Z,12.63
2019-02-20T14:03:05.078Z,12.37
2019-02-20T14:05:31.473Z,12.47
2019-02-20T14:07:57.619Z,12.80
2019-02-20T14:10:23.774Z,13.83
2019-02-20T14:12:50.010Z,14.03
2019-02-20T14:15:17.499Z,11.90
2019-02-20T14:17:44.047Z,13.87
2019-02-20T14:20:11.103Z,11.97
2019-02-20T14:22:37.930Z,13.73
2019-02-20T14:25:07.068Z,10.50
2019-02-20T14:27:34.362Z,9.80
2019-02-20T14:30:01.515Z,16.10
2019-02-20T14:32:29.784Z,9.13
2019-02-20T14:34:56.172Z,8.40
2019-02-20T14:37:22.574Z,9.73
2019-02-20T14:39:48.729Z,9.80
2019-02-20T14:42:15.162Z,12.13
2019-02-20T14:44:41.557Z,11.00
2019-02-20T14:47:07.699Z,8.87
2019-02-20T14:49:34.081Z,11.37
2019-02-20T14:52:00.459Z,10.47
2019-02-20T14:54:26.837Z,10.80
2019-02-20T14:56:52.975Z,10.40
2019-02-20T14:59:19.127Z,11.17
2019-02-20T15:01:45.285Z,9.97
2019-02-20T15:04:11.562Z,11.30
2019-02-20T15:06:38.799Z,9.57
2019-02-20T15:09:05.047Z,11.27
2019-02-20T15:11:33.104Z,9.93
2019-02-20T15:13:59.245Z,10.43
2019-02-20T15:16:25.646Z,11.20
2019-02-20T15:18:51.788Z,11.20
2019-02-20T15:21:17.945Z,11.10
2019-02-20T15:23:44.304Z,11.73
2019-02-20T15:26:10.767Z,10.83
2019-02-20T15:28:36.921Z,11.07
2019-02-20T15:31:03.321Z,14.53
2019-02-20T15:33:29.849Z,13.87
2019-02-20T15:35:55.982Z,12.13
2019-02-20T15:38:22.515Z,10.53
2019-02-20T15:40:48.976Z,14.67
2019-02-20T15:43:15.531Z,11.83
2019-02-20T15:45:41.688Z,13.23
2019-02-20T15:48:07.855Z,12.63
2019-02-20T15:50:34.094Z,11.30
2019-02-20T15:53:00.245Z,11.83
2019-02-20T15:55:26.623Z,14.77
2019-02-20T15:57:52.766Z,15.17
2019-02-20T16:00:21.023Z,15.30
2019-02-20T16:02:47.163Z,14.43
2019-02-20T16:05:13.959Z,15.87
2019-02-20T16:07:40.111Z,14.80
2019-02-20T16:10:08.865Z,13.90
2019-02-20T16:12:35.236Z,14.13
2019-02-20T16:15:01.392Z,13.27
2019-02-20T16:17:27.632Z,14.47
2019-02-20T16:19:53.775Z,13.07
2019-02-20T16:22:19.919Z,12.33
2019-02-20T16:24:46.460Z,12.03
2019-02-20T16:27:12.838Z,12.17
2019-02-20T16:29:38.974Z,11.50
2019-02-20T16:32:05.117Z,13.97
2019-02-20T16:34:31.504Z,14.13
2019-02-20T16:36:58.240Z,12.27
2019-02-20T16:39:24.432Z,12.97
2019-02-20T16:41:50.817Z,13.07
2019-02-20T16:44:17.971Z,11.90
2019-02-20T16:46:44.436Z,11.13
2019-02-20T16:49:10.585Z,12.97
2019-02-20T16:51:36.731Z,12.17
2019-02-20T16:54:02.870Z,14.70
2019-02-20T16:56:29.118Z,13.53
2019-02-20T16:58:55.259Z,14.17
2019-02-20T17:01:21.640Z,12.90
2019-02-20T17:03:48.140Z,15.33
2019-02-20T17:06:14.568Z,16.43
2019-02-20T17:08:40.960Z,13.50
2019-02-20T17:11:07.206Z,15.77
2019-02-20T17:13:33.352Z,12.37
2019-02-20T17:15:59.591Z,16.57
2019-02-20T17:18:25.968Z,18.53
2019-02-20T17:20:52.116Z,18.27
2019-02-20T17:23:18.395Z,18.70
2019-02-20T17:25:44.550Z,18.17
2019-02-20T17:28:10.890Z,20.03
2019-02-20T17:30:37.024Z,20.83
2019-02-20T17:33:03.258Z,17.53
2019-02-20T17:35:29.496Z,17.10
2019-02-20T17:37:55.637Z,25.33
2019-02-20T17:40:21.995Z,24.90
2019-02-20T17:42:48.148Z,24.10
2019-02-20T17:45:15.801Z,15.80
2019-02-20T17:47:42.262Z,16.50
2019-02-20T17:50:11.605Z,22.37
2019-02-20T17:52:37.753Z,19.70
2019-02-20T17:55:06.100Z,17.30
2019-02-20T17:57:32.357Z,18.97
2019-02-20T17:59:58.515Z,17.23
2019-02-20T18:02:24.659Z,20.43
2019-02-20T18:04:50.836Z,18.00
2019-02-20T18:07:17.976Z,16.90
2019-02-20T18:09:44.113Z,17.60
2019-02-20T18:12:10.265Z,18.90
2019-02-20T18:14:36.391Z,19.60
2019-02-20T18:17:02.539Z,16.13
2019-02-20T18:19:28.699Z,15.97
2019-02-20T18:21:54.843Z,15.97
2019-02-20T18:24:21.207Z,15.57
2019-02-20T18:26:47.606Z,17.77
2019-02-20T18:29:13.731Z,16.50
2019-02-20T18:31:40.116Z,17.07
2019-02-20T18:34:06.587Z,16.80
2019-02-20T18:36:32.722Z,18.47
2019-02-20T18:38:58.873Z,18.27
2019-02-20T18:41:25.011Z,16.07
2019-02-20T18:43:51.199Z,17.43
2019-02-20T18:46:17.422Z,20.00
2019-02-20T18:48:43.560Z,19.27
2019-02-20T18:51:09.706Z,18.80
2019-02-20T18:53:35.890Z,18.80
2019-02-20T18:56:02.100Z,16.70
2019-02-20T18:58:33.999Z,17.50
2019-02-20T19:00:56.517Z,16.47
2019-02-20T19:03:22.763Z,18.93
2019-02-20T19:05:49.239Z,19.17
2019-02-20T19:08:37.360Z,18.27
2019-02-20T19:11:13.348Z,20.00
2019-02-20T19:14:09.258Z,21.23
2019-02-20T19:17:09.410Z,27.87
2019-02-20T19:19:56.781Z,27.40
2019-02-20T19:22:58.585Z,25.10
2019-02-20T19:25:34.425Z,24.53
2019-02-20T19:28:07.403Z,21.23
2019-02-20T19:30:49.042Z,22.70
2019-02-20T19:33:31.213Z,21.47
2019-02-20T19:36:13.880Z,16.80
2019-02-20T19:39:04.034Z,18.60
2019-02-20T19:41:57.988Z,20.67
2019-02-20T19:44:33.722Z,18.47
2019-02-20T19:47:16.030Z,21.77
2019-02-20T19:49:58.252Z,21.00
2019-02-20T19:52:37.196Z,18.60
2019-02-20T19:55:13.646Z,21.63
2019-02-20T19:58:01.380Z,18.20
2019-02-20T20:00:37.317Z,18.70
2019-02-20T20:03:20.489Z,22.37
2019-02-20T20:06:05.464Z,20.03
2019-02-20T20:08:38.581Z,18.77
2019-02-20T20:11:22.993Z,20.97
2019-02-20T20:14:05.182Z,20.17
2019-02-20T20:16:55.006Z,18.83
2019-02-20T20:19:37.076Z,21.80
2019-02-20T20:22:11.295Z,20.37
2019-02-20T20:25:00.452Z,20.20
2019-02-20T20:27:51.740Z,18.07
2019-02-20T20:30:51.498Z,19.67
2019-02-20T20:33:42.544Z,21.43
2019-02-20T20:36:29.057Z,26.33
2019-02-20T20:39:15.447Z,30.60
2019-02-20T20:42:01.921Z,50.03
2019-02-20T20:44:46.735Z,38.23
2019-02-20T20:47:37.629Z,28.03
2019-02-20T20:50:22.885Z,27.03
2019-02-20T20:52:55.851Z,24.80
2019-02-20T20:55:42.303Z,21.13
2019-02-20T20:58:17.648Z,22.47
2019-02-20T21:00:53.407Z,20.53
2019-02-20T21:03:23.343Z,20.83
2019-02-20T21:06:02.199Z,23.13
2019-02-20T21:08:38.018Z,21.13
2019-02-20T21:11:14.099Z,21.17
2019-02-20T21:14:16.084Z,22.90
2019-02-20T21:16:51.808Z,20.47
2019-02-20T21:19:33.424Z,22.47
2019-02-20T21:22:37.695Z,22.43
2019-02-20T21:25:41.600Z,20.40
2019-02-20T21:28:20.597Z,22.50
2019-02-20T21:30:56.103Z,21.20
2019-02-20T21:33:29.379Z,19.70
2019-02-20T21:36:02.059Z,19.20
2019-02-20T21:39:01.085Z,21.63
2019-02-20T21:41:38.810Z,20.07
2019-02-20T21:44:14.767Z,19.03
2019-02-20T21:46:47.471Z,20.60
2019-02-20T21:49:34.851Z,23.47
2019-02-20T21:52:13.791Z,19.00
2019-02-20T21:54:52.640Z,20.80
2019-02-20T21:57:22.566Z,24.60
2019-02-20T21:59:55.485Z,21.87
2019-02-20T22:02:28.308Z,23.10
2019-02-20T22:05:04.290Z,19.60
2019-02-20T22:07:51.734Z,18.57
2019-02-20T22:10:33.821Z,19.23
2019-02-20T22:13:18.431Z,21.97
2019-02-20T22:15:59.725Z,18.80
2019-02-20T22:18:59.930Z,21.73
2019-02-20T22:21:48.173Z,22.37
2019-02-20T22:24:24.588Z,18.30
2019-02-20T22:27:03.753Z,19.10
2019-02-20T22:29:50.225Z,19.43
2019-02-20T22:32:26.042Z,21.90
2019-02-20T22:35:02.178Z,21.57
2019-02-20T22:37:57.880Z,22.73
2019-02-20T22:40:39.845Z,20.60
2019-02-20T22:43:35.614Z,21.57
2019-02-20T22:46:11.288Z,20.67
2019-02-20T22:48:59.790Z,23.13
2019-02-20T22:52:00.132Z,22.73
2019-02-20T22:54:49.919Z,22.70
2019-02-20T22:57:31.951Z,20.77
2019-02-20T23:00:07.939Z,21.03
2019-02-20T23:02:55.359Z,22.57
2019-02-20T23:05:48.603Z,21.50
2019-02-20T23:08:31.172Z,20.50
2019-02-20T23:11:22.790Z,23.43
2019-02-20T23:13:55.280Z,23.47
2019-02-20T23:16:21.423Z,24.17
2019-02-20T23:18:47.568Z,21.23
2019-02-20T23:21:13.823Z,23.97
2019-02-20T23:23:39.978Z,25.10
2019-02-20T23:26:06.119Z,22.57
2019-02-20T23:28:32.529Z,23.70
2019-02-20T23:30:58.667Z,25.17
2019-02-20T23:33:25.076Z,23.13
2019-02-20T23:35:51.216Z,23.93
2019-02-20T23:38:17.652Z,24.27
2019-02-20T23:40:43.793Z,26.53
2019-02-20T23:43:09.939Z,24.93
2019-02-20T23:45:36.087Z,23.03
2019-02-20T23:48:02.235Z,24.57
2019-02-20T23:50:28.388Z,28.03
2019-02-20T23:52:54.540Z,21.47
2019-02-20T23:55:20.941Z,25.37
2019-02-20T23:57:47.140Z,23.17
